Hemera — YM5099 — position and weather

sailwx.info

Track history (hours):
 
Tides and Currents Weather Stations Pressure Air Temp Water Temp Dewpoint Dewpoint Depression Visibility Wind Speed Wind Dir Waves Ship Positions

Hemera

Last reported at 2017-Oct-30 06:43 UTC. Time now 2017-Dec-18 13:02 UTC.
Position N 37°09' E 025°47'.
Warning: this ship's position is 49 days out of date.

Length 23 m.

Type: Sailing vessel. MMSI: 271041289.

Date/timePositionNaut miles runAvg speedWind from/ knotsBaromVisibWave heightAir tempDewpointWater temp
2017-Oct-30 06:43N 37°09' E 025°47'2 8.6
2017-Oct-30 06:31N 37°10' E 025°45'16 8.9
2017-Oct-30 04:40N 37°11' E 025°24'2 9.2
2017-Oct-30 04:30N 37°11' E 025°22'5 9.3
2017-Oct-30 03:59N 37°10' E 025°16'4 0.9
2017-Oct-29 23:51N 37°07' E 025°13'7 0.7
2017-Oct-29 14:36N 37°11' E 025°06'1 8.8
2017-Oct-29 14:30N 37°11' E 025°05'4 8.8
2017-Oct-29 14:01N 37°12' E 024°59'5 9.0
2017-Oct-29 13:29N 37°13' E 024°54'  
2017-Oct-22 06:19N 37°30' E 025°04'3 9.2
2017-Oct-22 06:01N 37°30' E 025°08'5 9.4
2017-Oct-22 05:28N 37°29' E 025°14'4 8.8
2017-Oct-22 04:59N 37°28' E 025°19'  
Track history (hours):
 
Tides and Currents Weather Stations Pressure Air Temp Water Temp Dewpoint Dewpoint Depression Visibility Wind Speed Wind Dir Waves Ship Positions

Hemera

Last reported at 2017-Oct-30 06:43 UTC. Time now 2017-Dec-18 13:02 UTC.
Position N 37°09' E 025°47'.
Warning: this ship's position is 49 days out of date.

Length 23 m.

Type: Sailing vessel. MMSI: 271041289.

Date/timePositionNaut miles runAvg speedWind from/ knotsBaromVisibWave heightAir tempDewpointWater temp
2017-Oct-30 06:43N 37°09' E 025°47'2 8.6
2017-Oct-30 06:31N 37°10' E 025°45'16 8.9
2017-Oct-30 04:40N 37°11' E 025°24'2 9.2
2017-Oct-30 04:30N 37°11' E 025°22'5 9.3
2017-Oct-30 03:59N 37°10' E 025°16'4 0.9
2017-Oct-29 23:51N 37°07' E 025°13'7 0.7
2017-Oct-29 14:36N 37°11' E 025°06'1 8.8
2017-Oct-29 14:30N 37°11' E 025°05'4 8.8
2017-Oct-29 14:01N 37°12' E 024°59'5 9.0
2017-Oct-29 13:29N 37°13' E 024°54'  
2017-Oct-22 06:19N 37°30' E 025°04'3 9.2
2017-Oct-22 06:01N 37°30' E 025°08'5 9.4
2017-Oct-22 05:28N 37°29' E 025°14'4 8.8
2017-Oct-22 04:59N 37°28' E 025°19'  

Dump ship's entire track history